Flight Track Log - Related Links

Times and Time Zones

All times are in EDT time to prevent confusion due to time zone crossing. See the LXJ444 flight status page for this flight to view local times or setup timezone preferences in your user account.

Time Position Orientation Groundspeed Altitude Reporting Facility
EDT Latitude Longitude Course Direction KTS MPH feet Rate Location/Type
Sat 06:40:00 PM 38.9333 -77.5167 198° South 202 232 3,000  Level Potomac TRACON
Sat 06:42:12 PM 38.7950 -77.5733 198° South 243 280 9,900 3,347 Climbing Washington Center
Sat 06:43:10 PM 38.7158 -77.5686 177° South 269 310 13,600 2,622 Climbing Washington Center
Sat 06:44:11 PM 38.6325 -77.5556 173° South 295 339 15,100 2,579 Climbing Washington Center
Sat 06:45:11 PM 38.5283 -77.5608 182° South 334 384 18,800 3,620 Climbing Washington Center
Sat 06:46:12 PM 38.4258 -77.5767 187° South 369 425 22,400 3,630 Climbing Washington Center
Sat 06:47:10 PM 38.3494 -77.6514 218° Southwest 363 418 26,000 2,672 Climbing Washington Center
Sat 06:48:11 PM 38.2794 -77.7208 218° Southwest 348 400 27,700 1,785 Climbing Washington Center
Sat 06:49:11 PM 38.2031 -77.8033 220° Southwest 360 414 29,600 1,140 Climbing Washington Center
Sat 06:50:12 PM 38.1242 -77.8856 219° Southwest 365 420 30,000 1,311 Climbing Washington Center
Sat 06:51:10 PM 38.0517 -77.9650 221° Southwest 365 420 32,200 2,200 Climbing Washington Center
Sat 06:52:12 PM 37.9708 -78.0442 218° Southwest 346 398 34,400 1,967 Climbing Washington Center
Sat 06:53:12 PM 37.8986 -78.1156 218° Southwest 341 392 36,200 1,627 Climbing Washington Center
Sat 06:54:10 PM 37.8300 -78.1947 222° Southwest 335 386 37,600 1,412 Climbing Washington Center
Sat 06:55:11 PM 37.7556 -78.2683 218° Southwest 335 386 39,000 1,240 Climbing Washington Center
Sat 06:56:11 PM 37.6872 -78.3394 219° Southwest 335 386 40,100 893 Climbing Washington Center
Sat 06:57:12 PM 37.6125 -78.4153 219° Southwest 335 386 40,800 645 Climbing Washington Center
Sat 06:58:12 PM 37.5439 -78.4861 219° Southwest 340 391 41,400 650 Climbing Washington Center
Sat 06:59:12 PM 37.4692 -78.5617 219° Southwest 345 397 42,100 763 Climbing Washington Center
Sat 07:00:10 PM 37.3919 -78.6425 220° Southwest 357 411 42,900 454 Climbing Washington Center
Sat 07:01:11 PM 37.3128 -78.7175 217° Southwest 357 411 43,000 50 Climbing Washington Center
Sat 07:02:11 PM 37.2228 -78.8078 219° Southwest 362 417 43,000  Level Washington Center
Sat 07:03:12 PM 37.1414 -78.8878 218° Southwest 362 417 43,000  Level Washington Center
Sat 07:04:12 PM 37.0619 -78.9678 219° Southwest 367 422 43,000  Level Washington Center
Sat 07:05:10 PM 36.9822 -79.0525 220° Southwest 367 422 43,000  Level Washington Center
Sat 07:06:11 PM 36.9031 -79.1269 217° Southwest 367 422 43,000  Level Washington Center
Sat 07:07:12 PM 36.8361 -79.1967 220° Southwest 361 415 43,000  Level Washington Center
Sat 07:08:10 PM 36.7608 -79.2708 218° Southwest 361 415 43,000 50 Level Washington Center
Sat 07:09:11 PM 36.6833 -79.3475 218° Southwest 361 415 43,100 347 Climbing Washington Center
Sat 07:10:11 PM 36.6081 -79.4239 219° Southwest 361 415 43,700 575 Climbing Washington Center
Sat 07:11:58 PM 36.4567 -79.5681 217° Southwest 365 420 44,700 467 Climbing Atlanta Center
Sat 07:12:58 PM 36.3781 -79.6447 218° Southwest 365 420 45,000 150 Climbing Atlanta Center
Sat 07:13:58 PM 36.2975 -79.7239 218° Southwest 370 426 45,000  Level Atlanta Center
Sat 07:14:58 PM 36.2208 -79.8025 220° Southwest 379 436 45,000  Level Atlanta Center
Sat 07:15:58 PM 36.1361 -79.8842 218° Southwest 385 443 45,000  Level Atlanta Center
Sat 07:16:58 PM 36.0511 -79.9631 217° Southwest 385 443 45,000  Level Atlanta Center
Sat 07:17:58 PM 35.9422 -80.0119 200° South 391 450 45,000  Level Atlanta Center
Sat 07:18:58 PM 35.8222 -80.0461 193° South 410 472 45,000  Level Atlanta Center
Sat 07:19:58 PM 35.7067 -80.0850 195° South 416 479 45,000  Level Atlanta Center
Sat 07:20:58 PM 35.5933 -80.1236 195° South 423 487 45,000  Level Atlanta Center
Sat 07:21:58 PM 35.4839 -80.1619 196° South 423 487 45,000  Level Atlanta Center
Sat 07:22:58 PM 35.3825 -80.1922 194° South 423 487 45,000  Level Atlanta Center
Sat 07:23:58 PM 35.2689 -80.2281 194° South 418 481 45,000  Level Atlanta Center
Sat 07:26:02 PM 35.0261 -80.3069 195° South 411 473 45,000  Level Jacksonville Center
Sat 07:27:02 PM 34.9164 -80.3458 196° South 411 473 45,000  Level Jacksonville Center
Sat 07:28:02 PM 34.8169 -80.3764 194° South 418 481 45,000  Level Jacksonville Center
Sat 07:29:02 PM 34.7111 -80.4125 196° South 408 470 45,000  Level Jacksonville Center
Sat 07:30:03 PM 34.5881 -80.4108 179° South 421 484 45,000  Level Jacksonville Center
Sat 07:31:02 PM 34.4692 -80.4119 180° South 426 490 45,000  Level Jacksonville Center
Sat 07:32:02 PM 34.3464 -80.4203 183° South 426 490 45,000  Level Jacksonville Center
Sat 07:33:02 PM 34.2211 -80.4164 179° South 438 504 45,000  Level Jacksonville Center
Sat 07:34:02 PM 34.0958 -80.4200 181° South 448 516 45,000  Level Jacksonville Center
Sat 07:35:02 PM 33.9708 -80.4211 180° South 453 521 45,000  Level Jacksonville Center
Sat 07:36:02 PM 33.8436 -80.4247 181° South 458 527 45,000  Level Jacksonville Center
Sat 07:37:02 PM 33.7164 -80.4231 179° South 458 527 45,000  Level Jacksonville Center
Sat 07:38:02 PM 33.5892 -80.4267 181° South 458 527 45,000  Level Jacksonville Center
Sat 07:39:02 PM 33.4639 -80.4278 180° South 458 527 45,000  Level Jacksonville Center
Sat 07:40:02 PM 33.3367 -80.4311 181° South 458 527 45,000  Level Jacksonville Center
Sat 07:41:02 PM 33.2136 -80.4347 181° South 453 521 45,000  Level Jacksonville Center
Sat 07:42:02 PM 33.0842 -80.4406 182° South 453 521 45,000  Level Jacksonville Center
Sat 07:43:02 PM 32.9569 -80.4392 179° South 461 531 45,000  Level Jacksonville Center
Sat 07:44:02 PM 32.8336 -80.4353 178° South 456 525 45,000  Level Jacksonville Center
Sat 07:45:02 PM 32.7106 -80.4386 181° South 451 519 45,000  Level Jacksonville Center
Sat 07:46:02 PM 32.5731 -80.4472 183° South 431 496 45,000  Level Jacksonville Center
Sat 07:47:02 PM 32.4519 -80.4553 183° South 442 509 45,000  Level Jacksonville Center
Sat 07:48:02 PM 32.3289 -80.4611 182° South 443 510 45,000  Level Jacksonville Center
Sat 07:49:02 PM 32.2061 -80.4692 183° South 445 512 45,000  Level Jacksonville Center
Sat 07:50:02 PM 32.0892 -80.4797 184° South 434 499 45,000  Level Jacksonville Center
Sat 07:51:02 PM 31.9786 -80.4850 182° South 440 506 45,000  Level Jacksonville Center
Sat 07:52:02 PM 31.8431 -80.4911 182° South 445 512 45,000  Level Jacksonville Center
Sat 07:53:02 PM 31.7328 -80.4989 183° South 439 505 45,000  Level Jacksonville Center
Sat 07:54:02 PM 31.5972 -80.5072 183° South 439 505 45,000  Level Jacksonville Center
Sat 07:55:02 PM 31.4742 -80.5153 183° South 445 512 45,000  Level Jacksonville Center
Sat 07:56:02 PM 31.3511 -80.5208 182° South 435 501 45,000  Level Jacksonville Center
Sat 07:57:02 PM 31.2258 -80.5289 183° South 440 506 45,000  Level Jacksonville Center
Sat 07:58:02 PM 31.1028 -80.5342 182° South 440 506 45,000  Level Jacksonville Center
Sat 07:59:02 PM 30.9797 -80.5422 183° South 440 506 45,000  Level Jacksonville Center
Sat 08:00:02 PM 30.8567 -80.5525 184° South 445 512 45,000  Level Jacksonville Center
Sat 08:01:02 PM 30.7483 -80.5575 182° South 440 506 45,000  Level Jacksonville Center
Sat 08:02:02 PM 30.6253 -80.5656 183° South 440 506 45,000  Level Jacksonville Center
Sat 08:03:02 PM 30.5017 -80.5467 172° South 440 506 45,000  Level Jacksonville Center
Sat 08:04:02 PM 30.3739 -80.5258 172° South 451 519 45,000  Level Jacksonville Center
Sat 08:05:02 PM 30.2483 -80.5097 174° South 457 526 45,000  Level Jacksonville Center
Sat 08:06:02 PM 30.1250 -80.4911 173° South 457 526 45,000  Level Jacksonville Center
Sat 08:07:02 PM 29.9994 -80.4750 174° South 457 526 45,000  Level Jacksonville Center
Sat 08:08:02 PM 29.8758 -80.4542 172° South 457 526 45,000  Level Jacksonville Center
Sat 08:09:02 PM 29.7522 -80.4381 174° South 457 526 45,000  Level Jacksonville Center
Sat 08:10:02 PM 29.6247 -80.4222 174° South 452 520 45,000  Level Jacksonville Center
Sat 08:11:02 PM 29.5053 -80.4039 172° South 452 520 45,000 -4,500 Level Jacksonville Center
Sat 08:12:02 PM 29.3858 -80.3831 171° South 442 509 36,000 -2,288 Descending Jacksonville Center
Sat 08:14:58 PM 29.0056 -80.3331 173° South 456 525 36,000  Level Miami Center
Sat 08:15:58 PM 28.8808 -80.3125 172° South 462 532 36,000  Level Miami Center
Sat 08:16:58 PM 28.7542 -80.2967 174° South 462 532 36,000 -550 Level Miami Center
Sat 08:17:58 PM 28.6397 -80.2814 173° South 462 532 34,900 -1,250 Descending Miami Center
Sat 08:18:58 PM 28.5128 -80.2633 173° South 462 532 33,500 -1,350 Descending Miami Center
Sat 08:19:58 PM 28.3783 -80.2144 162° South 462 532 32,200 -1,200 Descending Miami Center
Sat 08:20:58 PM 28.2583 -80.1636 160° South 462 532 31,100 -1,800 Descending Miami Center
Sat 08:21:58 PM 28.1386 -80.1153 160° South 462 532 28,600 -2,750 Descending Miami Center
Sat 08:22:58 PM 28.0372 -80.0725 160° South 443 510 25,600 -3,850 Descending Miami Center
Sat 08:23:58 PM 27.9194 -80.0197 158° South 418 481 20,900 -3,450 Descending Miami Center
Sat 08:24:58 PM 27.8247 -79.9514 147° Southeast 412 474 18,700 -1,350 Descending Miami Center
Sat 08:25:58 PM 27.7492 -79.8767 139° Southeast 394 453 18,200 -750 Descending Miami Center
Sat 08:26:58 PM 27.6633 -79.8908 188° South 319 367 17,200 -1,550 Descending Miami Center
Sat 08:27:58 PM 27.5828 -79.9447 211° Southwest 319 367 15,100 -2,150 Descending Miami Center
Sat 08:28:58 PM 27.4958 -80.0106 214° Southwest 346 398 12,900 -1,800 Descending Miami Center
Sat 08:29:58 PM 27.4150 -80.0692 213° Southwest 351 404 11,500 -1,350 Descending Miami Center
Sat 08:30:58 PM 27.3431 -80.1208 213° Southwest 335 386 10,200 -750 Descending Miami Center
Sat 08:31:58 PM 27.2697 -80.1328 188° South 293 337 10,000 -700 Descending Miami Center
Sat 08:32:58 PM 27.1992 -80.1075 162° South 280 322 8,800 -1,500 Descending Miami Center
Sat 08:33:58 PM 27.1186 -80.0656 155° Southeast 287 330 7,000 -1,600 Descending Miami Center
Sat 08:34:58 PM 27.0525 -80.0311 155° Southeast 282 325 5,600 -1,450 Descending Miami Center
Sat 08:35:58 PM 26.9825 -79.9964 156° South 272 313 4,100 -800 Descending Miami Center
Sat 08:36:58 PM 26.9217 -80.0019 185° South 253 291 4,000 -100 Descending Miami Center
Sat 08:38:00 PM 26.8271 -80.0729 222° Southwest  Level FlightAware Approximate
Sat 08:45:00 PM 26.6832 -80.0956 110° East  Level Estimated
Sat 08:46:00 PM 26.6832 -80.0956 110° East  Level Estimated
Sat 08:47:00 PM 26.6832 -80.0956 110° East  Level Estimated
Sat 08:48:00 PM 26.6832 -80.0956 110° East  Level Estimated
Sat 08:49:00 PM 26.6832 -80.0956 110° East  Level Estimated
Sat 08:50:00 PM 26.6832 -80.0956 110° East  Level Estimated
Sat 08:51:00 PM 26.6832 -80.0956 110° East  Level Estimated

Login

Don't have an account? Register now (free) for customized features, flight alerts, and more!